createdAt,value
2023-05-23T00:01:49.634Z,9.97
2023-05-23T00:04:18.861Z,10.53
2023-05-23T00:06:50.602Z,8.97
2023-05-23T00:09:17.716Z,12.00
2023-05-23T00:11:45.587Z,12.95
2023-05-23T00:14:15.964Z,10.37
2023-05-23T00:16:45.222Z,9.07
2023-05-23T00:19:15.125Z,12.90
2023-05-23T00:21:43.798Z,14.95
2023-05-23T00:24:10.577Z,12.85
2023-05-23T00:26:37.390Z,13.63
2023-05-23T00:29:04.072Z,19.10
2023-05-23T00:31:31.620Z,16.47
2023-05-23T00:33:58.442Z,17.77
2023-05-23T00:36:25.185Z,13.77
2023-05-23T00:38:53.304Z,15.33
2023-05-23T00:41:21.055Z,11.53
2023-05-23T00:43:47.896Z,15.17
2023-05-23T00:46:15.050Z,13.63
2023-05-23T00:48:41.901Z,14.90
2023-05-23T00:51:08.673Z,14.13
2023-05-23T00:53:35.881Z,9.27
2023-05-23T00:56:03.622Z,12.53
2023-05-23T00:58:30.852Z,10.43
2023-05-23T01:00:57.756Z,10.40
2023-05-23T01:03:28.854Z,10.70
2023-05-23T01:05:56.698Z,9.07
2023-05-23T01:08:23.457Z,13.90
2023-05-23T01:10:51.104Z,10.73
2023-05-23T01:13:23.825Z,13.43
2023-05-23T01:16:07.601Z,11.63
2023-05-23T01:18:54.653Z,11.40
2023-05-23T01:21:23.967Z,15.13
2023-05-23T01:24:05.998Z,11.67
2023-05-23T01:26:53.343Z,11.33
2023-05-23T01:29:34.302Z,13.00
2023-05-23T01:32:04.033Z,16.53
2023-05-23T01:34:32.859Z,11.70
2023-05-23T01:37:00.765Z,16.40
2023-05-23T01:39:27.950Z,13.77
2023-05-23T01:41:54.900Z,13.87
2023-05-23T01:44:22.245Z,15.50
2023-05-23T01:46:49.102Z,14.13
2023-05-23T01:49:18.839Z,13.47
2023-05-23T01:51:46.636Z,17.93
2023-05-23T01:54:17.058Z,16.20
2023-05-23T01:56:44.324Z,11.00
2023-05-23T01:59:11.625Z,14.20
2023-05-23T02:01:39.806Z,12.70
2023-05-23T02:04:06.974Z,13.03
2023-05-23T02:06:34.358Z,15.93
2023-05-23T02:09:01.446Z,14.80
2023-05-23T02:11:28.266Z,13.90
2023-05-23T02:13:55.125Z,10.43
2023-05-23T02:16:23.295Z,15.93
2023-05-23T02:18:53.023Z,13.50
2023-05-23T02:21:19.902Z,13.57
2023-05-23T02:23:46.643Z,14.23
2023-05-23T02:26:13.328Z,11.83
2023-05-23T02:28:39.988Z,13.17
2023-05-23T02:31:06.754Z,11.43
2023-05-23T02:33:33.501Z,14.30
2023-05-23T02:36:00.269Z,12.23
2023-05-23T02:38:27.440Z,11.93
2023-05-23T02:40:54.183Z,15.33
2023-05-23T02:43:20.923Z,9.40
2023-05-23T02:45:47.590Z,12.30
2023-05-23T02:48:14.309Z,13.87
2023-05-23T02:50:41.291Z,15.60
2023-05-23T02:53:08.107Z,12.40
2023-05-23T02:55:34.813Z,15.20
2023-05-23T02:58:01.522Z,13.80
2023-05-23T03:00:28.374Z,16.20
2023-05-23T03:02:55.120Z,16.50
2023-05-23T03:05:21.848Z,18.03
2023-05-23T03:07:48.629Z,16.57
2023-05-23T03:10:15.656Z,14.63
2023-05-23T03:12:42.602Z,17.07
2023-05-23T03:15:10.166Z,13.83
2023-05-23T03:17:37.031Z,12.50
2023-05-23T03:20:04.968Z,13.67
2023-05-23T03:22:31.774Z,14.20
2023-05-23T03:24:58.597Z,18.23
2023-05-23T03:27:25.329Z,16.77
2023-05-23T03:29:52.094Z,14.30
2023-05-23T03:32:18.934Z,17.33
2023-05-23T03:34:46.146Z,14.50
2023-05-23T03:37:12.943Z,18.20
2023-05-23T03:39:39.986Z,13.70
2023-05-23T03:42:07.127Z,14.70
2023-05-23T03:44:33.898Z,13.07
2023-05-23T03:47:00.758Z,12.43
2023-05-23T03:49:27.536Z,14.33
2023-05-23T03:51:54.303Z,11.50
2023-05-23T03:54:21.328Z,17.43
2023-05-23T03:56:48.104Z,15.03
2023-05-23T03:59:15.002Z,15.80
2023-05-23T04:01:41.780Z,14.23
2023-05-23T04:04:08.589Z,11.73
2023-05-23T04:06:35.479Z,14.47
2023-05-23T04:09:02.670Z,13.90
2023-05-23T04:11:30.237Z,12.27
2023-05-23T04:13:57.288Z,10.80
2023-05-23T04:16:24.556Z,14.77
2023-05-23T04:18:52.020Z,11.37
2023-05-23T04:21:19.122Z,16.43
2023-05-23T04:23:46.169Z,10.30
2023-05-23T04:26:13.133Z,14.47
2023-05-23T04:28:40.149Z,9.47
2023-05-23T04:31:06.959Z,14.00
2023-05-23T04:33:34.244Z,16.00
2023-05-23T04:36:02.576Z,12.37
2023-05-23T04:38:29.357Z,12.60
2023-05-23T04:40:57.252Z,16.27
2023-05-23T04:43:26.705Z,11.33
2023-05-23T04:45:57.749Z,14.10
2023-05-23T04:48:24.892Z,13.47
2023-05-23T04:50:52.674Z,16.17
2023-05-23T04:53:19.449Z,18.13
2023-05-23T04:55:46.405Z,19.10
2023-05-23T04:58:13.253Z,19.17
2023-05-23T05:00:40.472Z,14.60
2023-05-23T05:03:09.875Z,17.67
2023-05-23T05:05:37.322Z,12.60
2023-05-23T05:08:04.202Z,17.03
2023-05-23T05:10:30.966Z,17.47
2023-05-23T05:12:57.713Z,13.40
2023-05-23T05:15:25.109Z,11.07
2023-05-23T05:17:51.866Z,12.03
2023-05-23T05:20:18.686Z,15.33
2023-05-23T05:22:46.296Z,18.77
2023-05-23T05:25:13.264Z,13.17
2023-05-23T05:27:40.520Z,16.03
2023-05-23T05:30:08.850Z,12.00
2023-05-23T05:32:35.878Z,14.27
2023-05-23T05:35:03.504Z,15.47
2023-05-23T05:37:30.343Z,11.13
2023-05-23T05:39:57.129Z,17.50
2023-05-23T05:42:23.839Z,14.87
2023-05-23T05:44:50.810Z,11.17
2023-05-23T05:47:17.588Z,15.90
2023-05-23T05:49:44.284Z,15.03
2023-05-23T05:52:10.972Z,12.13
2023-05-23T05:54:37.817Z,12.50
2023-05-23T05:57:04.779Z,13.93
2023-05-23T05:59:32.664Z,11.43
2023-05-23T06:01:59.529Z,13.03
2023-05-23T06:04:26.341Z,9.87
2023-05-23T06:06:53.172Z,11.90
2023-05-23T06:09:19.918Z,14.93
2023-05-23T06:11:46.934Z,14.00
2023-05-23T06:14:13.700Z,12.70
2023-05-23T06:16:41.199Z,14.80
2023-05-23T06:19:08.597Z,8.67
2023-05-23T06:21:38.872Z,7.17
2023-05-23T06:24:06.406Z,11.70
2023-05-23T06:26:36.359Z,12.10
2023-05-23T06:29:03.459Z,11.83
2023-05-23T06:31:30.456Z,6.53
2023-05-23T06:33:57.482Z,8.70
2023-05-23T06:36:24.289Z,11.90
2023-05-23T06:38:51.073Z,11.57
2023-05-23T06:41:17.968Z,9.47
2023-05-23T06:43:44.759Z,11.70
2023-05-23T06:46:11.535Z,8.30
2023-05-23T06:48:38.366Z,12.43
2023-05-23T06:51:08.533Z,11.77
2023-05-23T06:53:35.291Z,11.37
2023-05-23T06:56:02.008Z,12.33
2023-05-23T06:58:29.412Z,8.67
2023-05-23T07:00:56.321Z,11.37
2023-05-23T07:03:23.101Z,8.90
2023-05-23T07:05:49.813Z,7.23
2023-05-23T07:08:16.552Z,8.37
2023-05-23T07:10:43.394Z,11.03
2023-05-23T07:13:10.158Z,9.93
2023-05-23T07:15:36.930Z,8.97
2023-05-23T07:18:04.186Z,10.63
2023-05-23T07:20:33.294Z,11.03
2023-05-23T07:23:00.691Z,7.90
2023-05-23T07:25:28.028Z,9.80
2023-05-23T07:27:54.987Z,11.17
2023-05-23T07:30:22.783Z,6.77
2023-05-23T07:32:49.757Z,6.67
2023-05-23T07:35:17.024Z,5.33
2023-05-23T07:38:01.534Z,8.47
2023-05-23T07:40:28.606Z,9.47
2023-05-23T07:42:55.922Z,7.20
2023-05-23T07:45:23.200Z,7.80
2023-05-23T07:47:51.229Z,5.37
2023-05-23T07:50:18.103Z,10.70
2023-05-23T07:52:45.140Z,10.90
2023-05-23T07:55:12.016Z,7.03
2023-05-23T07:57:38.870Z,11.70
2023-05-23T08:00:07.227Z,10.50
2023-05-23T08:02:34.072Z,12.50
2023-05-23T08:05:00.896Z,11.13
2023-05-23T08:07:27.627Z,10.55
2023-05-23T08:09:54.370Z,9.73
2023-05-23T08:12:21.267Z,8.52
2023-05-23T08:14:51.409Z,12.82
2023-05-23T08:17:19.103Z,7.93
2023-05-23T08:19:46.100Z,10.20
2023-05-23T08:22:12.853Z,9.27
2023-05-23T08:24:39.540Z,7.90
2023-05-23T08:27:07.897Z,12.65
2023-05-23T08:29:38.535Z,7.80
2023-05-23T08:32:05.692Z,7.93
2023-05-23T08:34:33.125Z,12.80
2023-05-23T08:36:59.983Z,7.45
2023-05-23T08:39:26.953Z,10.10
2023-05-23T08:41:53.895Z,6.53
2023-05-23T08:44:21.135Z,11.32
2023-05-23T08:46:50.008Z,10.10
2023-05-23T08:49:22.805Z,7.63
2023-05-23T08:51:55.646Z,6.18
2023-05-23T08:54:22.435Z,7.88
2023-05-23T08:56:49.232Z,7.20
2023-05-23T08:59:17.064Z,8.50
2023-05-23T09:01:44.194Z,7.88
2023-05-23T09:04:12.193Z,9.85
2023-05-23T09:06:38.863Z,11.18
2023-05-23T09:09:05.726Z,14.02
2023-05-23T09:11:36.097Z,10.20
2023-05-23T09:14:05.149Z,10.85
2023-05-23T09:16:35.302Z,11.30
2023-05-23T09:19:11.531Z,8.65
2023-05-23T09:21:41.652Z,15.15
2023-05-23T09:24:08.358Z,6.00
2023-05-23T09:26:35.584Z,9.57
2023-05-23T09:29:05.744Z,11.63
2023-05-23T09:31:32.952Z,9.77
2023-05-23T09:34:02.453Z,8.52
2023-05-23T09:36:30.567Z,10.93
2023-05-23T09:38:57.423Z,11.27
2023-05-23T09:41:25.155Z,7.40
2023-05-23T09:43:53.529Z,6.82
2023-05-23T09:46:22.260Z,8.75
2023-05-23T09:48:53.126Z,9.43
2023-05-23T09:51:23.017Z,9.73
2023-05-23T09:53:50.553Z,7.55
2023-05-23T09:56:18.152Z,6.25
2023-05-23T09:58:49.993Z,7.45
2023-05-23T10:01:17.740Z,9.70
2023-05-23T10:03:59.980Z,6.45
2023-05-23T10:06:39.197Z,8.68
2023-05-23T10:09:07.955Z,6.65
2023-05-23T10:11:34.753Z,7.43
2023-05-23T10:14:04.976Z,7.45
2023-05-23T10:16:40.254Z,7.55
2023-05-23T10:19:24.784Z,6.93
2023-05-23T10:21:57.309Z,11.75
2023-05-23T10:24:26.784Z,5.95
2023-05-23T10:26:55.075Z,6.75
2023-05-23T10:29:25.650Z,5.65
2023-05-23T10:31:53.785Z,8.65
2023-05-23T10:34:29.053Z,6.25
2023-05-23T10:37:15.630Z,11.13
2023-05-23T10:40:09.889Z,11.18
2023-05-23T10:42:50.100Z,10.27
2023-05-23T10:45:20.394Z,9.38
2023-05-23T10:47:49.014Z,7.03
2023-05-23T10:50:37.361Z,7.55
2023-05-23T10:53:06.062Z,6.05
2023-05-23T10:55:37.315Z,13.13
2023-05-23T10:58:20.509Z,12.25
2023-05-23T11:00:59.616Z,6.20
2023-05-23T11:03:49.981Z,10.65
2023-05-23T11:06:39.605Z,7.95
2023-05-23T11:09:13.513Z,8.23
2023-05-23T11:11:59.248Z,7.35
2023-05-23T11:14:38.203Z,9.50
2023-05-23T11:17:20.041Z,6.18
2023-05-23T11:20:06.993Z,8.35
2023-05-23T11:22:35.136Z,9.85
2023-05-23T11:25:06.897Z,10.40
2023-05-23T11:27:38.753Z,11.73
2023-05-23T11:30:14.421Z,6.28
2023-05-23T11:32:42.340Z,6.93
2023-05-23T11:35:10.986Z,5.97
2023-05-23T11:37:40.906Z,6.30
2023-05-23T11:40:26.846Z,7.97
2023-05-23T11:42:57.257Z,13.85
2023-05-23T11:45:24.327Z,8.07
2023-05-23T11:47:51.432Z,10.82
2023-05-23T11:50:20.358Z,5.57
2023-05-23T11:52:51.703Z,7.13
2023-05-23T11:55:22.351Z,7.03
2023-05-23T11:57:50.423Z,9.65
2023-05-23T12:00:18.904Z,8.45
2023-05-23T12:02:47.886Z,8.32
2023-05-23T12:05:15.118Z,6.10
2023-05-23T12:07:43.425Z,9.75
2023-05-23T12:10:11.107Z,5.88
2023-05-23T12:12:38.221Z,4.72
2023-05-23T12:15:05.473Z,8.38
2023-05-23T12:17:35.606Z,13.82
2023-05-23T12:20:02.431Z,8.35
2023-05-23T12:22:29.783Z,8.63
2023-05-23T12:24:56.831Z,9.75
2023-05-23T12:27:31.470Z,8.90
2023-05-23T12:30:17.440Z,8.75
2023-05-23T12:32:45.958Z,6.72
2023-05-23T12:35:14.629Z,12.38
2023-05-23T12:37:45.857Z,7.20
2023-05-23T12:40:13.026Z,7.57
2023-05-23T12:42:52.852Z,5.28
2023-05-23T12:45:38.311Z,8.95
2023-05-23T12:48:07.227Z,8.02
2023-05-23T12:50:34.321Z,11.00
2023-05-23T12:53:02.665Z,6.13
2023-05-23T12:55:32.999Z,4.82
2023-05-23T12:57:59.782Z,7.50
2023-05-23T13:00:26.503Z,6.03
2023-05-23T13:02:53.378Z,6.07
2023-05-23T13:05:21.042Z,8.43
2023-05-23T13:07:47.833Z,11.20
2023-05-23T13:10:14.730Z,10.10
2023-05-23T13:13:10.084Z,10.27
2023-05-23T13:15:37.386Z,8.15
2023-05-23T13:18:04.454Z,7.15
2023-05-23T13:20:31.208Z,11.95
2023-05-23T13:22:58.789Z,4.55
2023-05-23T13:25:26.824Z,6.75
2023-05-23T13:27:54.166Z,8.77
2023-05-23T13:30:22.367Z,7.47
2023-05-23T13:32:51.573Z,4.20
2023-05-23T13:35:18.746Z,4.90
2023-05-23T13:37:46.007Z,10.07
2023-05-23T13:40:18.377Z,5.93
2023-05-23T13:42:46.275Z,6.15
2023-05-23T13:45:13.653Z,7.63
2023-05-23T13:47:40.456Z,7.20
2023-05-23T13:50:08.515Z,5.25
2023-05-23T13:52:35.915Z,4.20
2023-05-23T13:55:04.659Z,7.57
2023-05-23T13:57:31.742Z,8.57
2023-05-23T13:59:58.608Z,8.90
2023-05-23T14:02:25.338Z,6.97
2023-05-23T14:04:52.118Z,9.40
2023-05-23T14:07:19.094Z,8.98
2023-05-23T14:09:45.931Z,5.30
2023-05-23T14:12:12.682Z,5.93
2023-05-23T14:14:39.396Z,11.35
2023-05-23T14:17:06.162Z,6.80
2023-05-23T14:19:32.928Z,7.47
2023-05-23T14:21:59.683Z,6.65
2023-05-23T14:24:26.355Z,5.18
2023-05-23T14:26:53.202Z,5.97
2023-05-23T14:29:19.958Z,9.57
2023-05-23T14:31:46.766Z,4.70
2023-05-23T14:34:13.516Z,6.95
2023-05-23T14:36:40.277Z,6.78
2023-05-23T14:39:10.648Z,6.70
2023-05-23T14:41:40.918Z,7.43
2023-05-23T14:44:07.894Z,6.13
2023-05-23T14:46:34.831Z,6.43
2023-05-23T14:49:01.652Z,7.82
2023-05-23T14:51:43.012Z,6.72
2023-05-23T14:54:13.449Z,4.38
2023-05-23T14:56:41.481Z,4.18
2023-05-23T14:59:08.342Z,8.45
2023-05-23T15:01:37.235Z,7.68
2023-05-23T15:04:08.016Z,6.97
2023-05-23T15:06:35.126Z,4.47
2023-05-23T15:09:02.490Z,7.88
2023-05-23T15:11:29.229Z,8.50
2023-05-23T15:13:56.465Z,5.00
2023-05-23T15:16:23.531Z,8.48
2023-05-23T15:18:50.380Z,5.78
2023-05-23T15:21:17.217Z,7.47
2023-05-23T15:23:44.017Z,9.43
2023-05-23T15:26:11.012Z,4.07
2023-05-23T15:28:37.776Z,9.23
2023-05-23T15:31:05.116Z,8.43
2023-05-23T15:33:32.224Z,6.63
2023-05-23T15:35:59.458Z,7.20
2023-05-23T15:38:26.244Z,5.55
2023-05-23T15:40:54.742Z,8.85
2023-05-23T15:43:21.546Z,6.78
2023-05-23T15:45:50.770Z,10.27
2023-05-23T15:48:17.729Z,4.60
2023-05-23T15:50:44.882Z,9.00
2023-05-23T15:53:11.812Z,10.75
2023-05-23T15:55:41.207Z,8.77
2023-05-23T15:58:09.527Z,9.38
2023-05-23T16:00:36.425Z,6.10
2023-05-23T16:03:03.251Z,6.25
2023-05-23T16:05:30.323Z,8.60
2023-05-23T16:07:57.199Z,5.95
2023-05-23T16:10:24.746Z,8.80
2023-05-23T16:12:51.768Z,6.53
2023-05-23T16:15:18.661Z,6.97
2023-05-23T16:17:45.833Z,11.20
2023-05-23T16:20:12.963Z,7.40
2023-05-23T16:22:40.974Z,9.05
2023-05-23T16:25:09.261Z,9.10
2023-05-23T16:27:36.065Z,10.25
2023-05-23T16:30:04.134Z,8.68
2023-05-23T16:32:31.014Z,7.18
2023-05-23T16:34:57.796Z,3.10
2023-05-23T16:37:25.533Z,5.05
2023-05-23T16:39:52.414Z,6.85
2023-05-23T16:42:19.270Z,5.97
2023-05-23T16:44:46.229Z,5.57
2023-05-23T16:47:13.137Z,5.57
2023-05-23T16:49:40.051Z,6.05
2023-05-23T16:52:07.052Z,7.68
2023-05-23T16:54:34.166Z,5.40
2023-05-23T16:57:02.308Z,5.72
2023-05-23T16:59:30.033Z,9.07
2023-05-23T17:01:57.176Z,7.13
2023-05-23T17:04:24.272Z,9.15
2023-05-23T17:06:51.202Z,6.87
2023-05-23T17:09:18.289Z,3.80
2023-05-23T17:11:45.227Z,7.23
2023-05-23T17:14:12.502Z,10.57
2023-05-23T17:16:39.403Z,7.40
2023-05-23T17:19:06.392Z,3.77
2023-05-23T17:21:33.629Z,8.63
2023-05-23T17:24:00.582Z,7.43
2023-05-23T17:26:27.664Z,9.10
2023-05-23T17:28:54.565Z,4.50
2023-05-23T17:31:21.460Z,9.83
2023-05-23T17:33:48.344Z,5.20
2023-05-23T17:36:16.097Z,5.47
2023-05-23T17:38:42.866Z,8.03
2023-05-23T17:41:09.913Z,6.53
2023-05-23T17:43:37.095Z,8.27
2023-05-23T17:46:04.243Z,8.00
2023-05-23T17:48:45.535Z,9.30
2023-05-23T17:51:13.156Z,9.63
2023-05-23T17:53:41.420Z,7.13
2023-05-23T17:56:09.601Z,6.93
2023-05-23T17:58:38.212Z,5.93
2023-05-23T18:01:05.959Z,7.97
2023-05-23T18:03:32.909Z,9.43
2023-05-23T18:05:59.926Z,6.27
2023-05-23T18:08:26.773Z,6.30
2023-05-23T18:10:53.560Z,10.33
2023-05-23T18:13:20.695Z,9.43
2023-05-23T18:15:47.730Z,5.40
2023-05-23T18:18:16.382Z,10.00
2023-05-23T18:20:43.885Z,10.80
2023-05-23T18:23:12.050Z,5.73
2023-05-23T18:25:38.920Z,7.77
2023-05-23T18:28:05.975Z,6.53
2023-05-23T18:30:33.696Z,10.03
2023-05-23T18:33:00.922Z,5.93
2023-05-23T18:35:28.075Z,6.97
2023-05-23T18:37:54.806Z,5.63
2023-05-23T18:40:23.962Z,9.23
2023-05-23T18:42:51.035Z,5.80
2023-05-23T18:45:17.944Z,8.20
2023-05-23T18:47:45.219Z,9.73
2023-05-23T18:50:13.285Z,6.80
2023-05-23T18:52:40.478Z,6.73
2023-05-23T18:55:08.195Z,9.03
2023-05-23T18:57:34.995Z,7.17
2023-05-23T19:00:03.231Z,3.57
2023-05-23T19:02:30.239Z,10.60
2023-05-23T19:04:57.272Z,8.70
2023-05-23T19:07:24.019Z,5.37
2023-05-23T19:09:50.844Z,7.50
2023-05-23T19:12:17.619Z,5.03
2023-05-23T19:14:44.410Z,9.27
2023-05-23T19:17:11.514Z,11.10
2023-05-23T19:19:38.355Z,4.47
2023-05-23T19:22:05.326Z,3.70
2023-05-23T19:24:32.239Z,7.77
2023-05-23T19:26:59.190Z,5.03
2023-05-23T19:29:26.685Z,7.43
2023-05-23T19:31:54.693Z,7.33
2023-05-23T19:34:21.671Z,6.33
2023-05-23T19:36:48.366Z,5.23
2023-05-23T19:39:15.811Z,6.37
2023-05-23T19:41:42.902Z,8.73
2023-05-23T19:44:09.781Z,8.57
2023-05-23T19:46:36.742Z,9.37
2023-05-23T19:49:03.676Z,6.33
2023-05-23T19:51:33.502Z,13.93
2023-05-23T19:54:00.370Z,6.60
2023-05-23T19:56:27.391Z,7.30
2023-05-23T19:58:54.324Z,4.67
2023-05-23T20:01:21.998Z,7.17
2023-05-23T20:03:49.062Z,5.37
2023-05-23T20:06:16.864Z,8.70
2023-05-23T20:08:43.883Z,15.97
2023-05-23T20:11:10.780Z,6.00
2023-05-23T20:13:38.698Z,6.70
2023-05-23T20:16:07.812Z,11.30
2023-05-23T20:18:34.698Z,9.40
2023-05-23T20:21:03.534Z,10.57
2023-05-23T20:23:31.646Z,8.73
2023-05-23T20:25:58.427Z,7.80
2023-05-23T20:28:25.290Z,12.07
2023-05-23T20:30:52.041Z,7.57
2023-05-23T20:33:20.013Z,3.70
2023-05-23T20:35:48.374Z,3.97
2023-05-23T20:38:18.361Z,4.60
2023-05-23T20:40:45.500Z,5.73
2023-05-23T20:43:12.302Z,4.87
2023-05-23T20:45:39.106Z,12.17
2023-05-23T20:48:06.089Z,9.03
2023-05-23T20:50:33.825Z,6.47
2023-05-23T20:53:02.387Z,5.07
2023-05-23T20:55:30.407Z,7.03
2023-05-23T20:57:57.095Z,9.37
2023-05-23T21:00:24.189Z,10.63
2023-05-23T21:02:51.009Z,8.33
2023-05-23T21:05:17.879Z,8.80
2023-05-23T21:07:44.668Z,8.70
2023-05-23T21:10:11.502Z,8.23
2023-05-23T21:12:38.217Z,5.17
2023-05-23T21:15:05.333Z,9.67
2023-05-23T21:17:32.063Z,5.50
2023-05-23T21:19:58.746Z,7.90
2023-05-23T21:22:25.483Z,7.20
2023-05-23T21:24:52.189Z,10.90
2023-05-23T21:27:18.861Z,7.47
2023-05-23T21:29:46.931Z,7.33
2023-05-23T21:32:13.914Z,11.17
2023-05-23T21:34:40.742Z,5.17
2023-05-23T21:37:17.416Z,8.60
2023-05-23T21:39:51.340Z,5.10
2023-05-23T21:42:19.618Z,10.43
2023-05-23T21:44:46.845Z,9.73
2023-05-23T21:47:13.800Z,11.30
2023-05-23T21:49:40.815Z,11.63
2023-05-23T21:52:07.771Z,9.37
2023-05-23T21:54:34.577Z,9.37
2023-05-23T21:57:01.412Z,11.20
2023-05-23T21:59:28.162Z,4.90
2023-05-23T22:01:54.954Z,8.40
2023-05-23T22:04:21.796Z,6.97
2023-05-23T22:06:48.715Z,11.23
2023-05-23T22:09:15.573Z,8.37
2023-05-23T22:11:43.101Z,3.87
2023-05-23T22:14:10.262Z,8.03
2023-05-23T22:16:40.477Z,7.67
2023-05-23T22:19:10.355Z,9.70
2023-05-23T22:21:37.554Z,9.63
2023-05-23T22:24:04.831Z,6.93
2023-05-23T22:26:32.110Z,8.93
2023-05-23T22:28:58.867Z,11.63
2023-05-23T22:31:26.461Z,6.80
2023-05-23T22:33:53.432Z,17.03
2023-05-23T22:36:22.028Z,11.87
2023-05-23T22:38:49.416Z,9.03
2023-05-23T22:41:16.566Z,12.13
2023-05-23T22:43:43.452Z,9.90
2023-05-23T22:46:10.328Z,10.23
2023-05-23T22:48:37.934Z,13.07
2023-05-23T22:51:05.892Z,10.33
2023-05-23T22:53:32.668Z,9.40
2023-05-23T22:55:59.431Z,7.90
2023-05-23T22:58:26.558Z,6.10
2023-05-23T23:00:53.299Z,6.47
2023-05-23T23:03:20.195Z,7.27
2023-05-23T23:05:47.107Z,9.37
2023-05-23T23:08:13.987Z,12.20
2023-05-23T23:10:41.784Z,7.67
2023-05-23T23:13:09.025Z,12.63
2023-05-23T23:15:36.816Z,14.60
2023-05-23T23:18:05.820Z,12.47
2023-05-23T23:20:33.101Z,16.03
2023-05-23T23:23:00.047Z,12.67
2023-05-23T23:25:26.914Z,8.00
2023-05-23T23:27:53.656Z,12.83
2023-05-23T23:30:20.572Z,9.57
2023-05-23T23:32:47.317Z,14.33
2023-05-23T23:35:14.271Z,10.70
2023-05-23T23:37:41.066Z,12.83
2023-05-23T23:40:08.725Z,7.13
2023-05-23T23:42:35.598Z,10.93
2023-05-23T23:45:02.361Z,13.53
2023-05-23T23:47:29.094Z,8.03
2023-05-23T23:49:55.859Z,13.13
2023-05-23T23:52:22.579Z,11.17
2023-05-23T23:54:49.369Z,15.07
2023-05-23T23:57:16.175Z,12.43
2023-05-23T23:59:43.780Z,8.47
